sensor_id;sensor_type;location;lat;lon;timestamp;pressure;altitude;pressure_sealevel;temperature;humidity
3254;BME280;1639;42.804;23.342;2024-03-17T00:00:37;73766.56;;;-148.52;80.15
3254;BME280;1639;42.804;23.342;2024-03-17T00:03:05;73778.97;;;-148.52;80.34
3254;BME280;1639;42.804;23.342;2024-03-17T00:05:30;73778.97;;;-148.52;81.35
3254;BME280;1639;42.804;23.342;2024-03-17T00:07:56;73795.50;;;-148.52;82.12
3254;BME280;1639;42.804;23.342;2024-03-17T00:10:21;73812.06;;;-148.52;82.58
3254;BME280;1639;42.804;23.342;2024-03-17T00:12:47;73834.81;;;-148.52;84.63
3254;BME280;1639;42.804;23.342;2024-03-17T00:15:12;73853.44;;;-148.52;85.86
3254;BME280;1639;42.804;23.342;2024-03-17T00:17:39;73843.09;;;-148.52;87.79
3254;BME280;1639;42.804;23.342;2024-03-17T00:20:05;73869.97;;;-148.52;89.00
3254;BME280;1639;42.804;23.342;2024-03-17T00:22:39;73863.78;;;-148.52;88.26
3254;BME280;1639;42.804;23.342;2024-03-17T00:25:07;73869.97;;;-148.52;90.39
3254;BME280;1639;42.804;23.342;2024-03-17T00:27:34;73865.84;;;-148.52;90.01
3254;BME280;1639;42.804;23.342;2024-03-17T00:30:05;73863.78;;;-148.52;90.29
3254;BME280;1639;42.804;23.342;2024-03-17T00:32:35;73851.38;;;-148.52;89.28
3254;BME280;1639;42.804;23.342;2024-03-17T00:35:00;73847.22;;;-148.52;88.61
3254;BME280;1639;42.804;23.342;2024-03-17T00:37:26;73832.75;;;-148.52;87.69
3254;BME280;1639;42.804;23.342;2024-03-17T00:39:52;73841.03;;;-148.52;86.85
3254;BME280;1639;42.804;23.342;2024-03-17T00:42:17;73857.56;;;-148.52;88.58
3254;BME280;1639;42.804;23.342;2024-03-17T00:44:44;73853.44;;;-148.52;88.50
3254;BME280;1639;42.804;23.342;2024-03-17T00:47:09;73863.78;;;-148.52;87.28
3254;BME280;1639;42.804;23.342;2024-03-17T00:49:34;73876.19;;;-148.52;89.81
3254;BME280;1639;42.804;23.342;2024-03-17T00:52:00;73869.97;;;-148.52;89.28
3254;BME280;1639;42.804;23.342;2024-03-17T00:54:25;73861.72;;;-148.52;88.36
3254;BME280;1639;42.804;23.342;2024-03-17T00:56:51;73869.97;;;-148.52;89.05
3254;BME280;1639;42.804;23.342;2024-03-17T00:59:16;73869.97;;;-148.52;89.61
3254;BME280;1639;42.804;23.342;2024-03-17T01:01:41;73909.28;;;-148.52;91.29
3254;BME280;1639;42.804;23.342;2024-03-17T01:04:09;73903.09;;;-148.52;92.30
3254;BME280;1639;42.804;23.342;2024-03-17T01:06:34;73907.22;;;-148.52;93.01
3254;BME280;1639;42.804;23.342;2024-03-17T01:09:00;73934.13;;;-148.52;95.79
3254;BME280;1639;42.804;23.342;2024-03-17T01:11:25;73927.91;;;-148.52;97.70
3254;BME280;1639;42.804;23.342;2024-03-17T01:13:51;73936.19;;;-148.52;99.98
3254;BME280;1639;42.804;23.342;2024-03-17T01:16:16;73919.63;;;-148.52;99.19
3254;BME280;1639;42.804;23.342;2024-03-17T01:18:41;73932.03;;;-148.52;99.97
3254;BME280;1639;42.804;23.342;2024-03-17T01:21:08;73905.16;;;-148.52;99.31
3254;BME280;1639;42.804;23.342;2024-03-17T01:23:34;73894.81;;;-148.52;96.24
3254;BME280;1639;42.804;23.342;2024-03-17T01:25:59;73894.81;;;-148.52;96.21
3254;BME280;1639;42.804;23.342;2024-03-17T01:28:24;73911.34;;;-148.52;95.34
3254;BME280;1639;42.804;23.342;2024-03-17T01:30:51;73892.75;;;-148.52;94.77
3254;BME280;1639;42.804;23.342;2024-03-17T01:33:17;73886.53;;;-148.52;93.20
3254;BME280;1639;42.804;23.342;2024-03-17T01:35:42;73892.75;;;-148.52;91.07
3254;BME280;1639;42.804;23.342;2024-03-17T01:38:08;73890.66;;;-148.52;89.30
3254;BME280;1639;42.804;23.342;2024-03-17T01:40:36;73890.66;;;-148.52;88.19
3254;BME280;1639;42.804;23.342;2024-03-17T01:43:01;73907.22;;;-148.52;87.84
3254;BME280;1639;42.804;23.342;2024-03-17T01:45:29;73888.59;;;-148.52;88.04
3254;BME280;1639;42.804;23.342;2024-03-17T01:47:57;73894.81;;;-148.52;87.28
3254;BME280;1639;42.804;23.342;2024-03-17T01:50:23;73911.34;;;-148.52;88.28
3254;BME280;1639;42.804;23.342;2024-03-17T01:52:51;73938.25;;;-148.52;88.38
3254;BME280;1639;42.804;23.342;2024-03-17T01:55:18;73963.06;;;-148.52;86.34
3254;BME280;1639;42.804;23.342;2024-03-17T01:57:44;73969.28;;;-148.52;85.64
3254;BME280;1639;42.804;23.342;2024-03-17T02:00:10;74010.66;;;-148.52;83.73
3254;BME280;1639;42.804;23.342;2024-03-17T02:02:37;74039.63;;;-148.52;83.96
3254;BME280;1639;42.804;23.342;2024-03-17T02:05:03;74031.34;;;-148.52;84.04
3254;BME280;1639;42.804;23.342;2024-03-17T02:07:28;74043.75;;;-148.52;83.40
3254;BME280;1639;42.804;23.342;2024-03-17T02:09:56;74064.44;;;-148.52;84.45
3254;BME280;1639;42.804;23.342;2024-03-17T02:12:22;74068.59;;;-148.52;84.82
3254;BME280;1639;42.804;23.342;2024-03-17T02:14:47;74081.00;;;-148.52;84.14
3254;BME280;1639;42.804;23.342;2024-03-17T02:17:13;74081.00;;;-148.52;84.00
3254;BME280;1639;42.804;23.342;2024-03-17T02:19:38;74078.94;;;-148.52;84.28
3254;BME280;1639;42.804;23.342;2024-03-17T02:22:11;74076.84;;;-148.52;83.96
3254;BME280;1639;42.804;23.342;2024-03-17T02:24:37;74070.66;;;-148.52;84.13
3254;BME280;1639;42.804;23.342;2024-03-17T02:27:02;74070.66;;;-148.52;83.42
3254;BME280;1639;42.804;23.342;2024-03-17T02:29:27;74066.50;;;-148.52;83.24
3254;BME280;1639;42.804;23.342;2024-03-17T02:31:53;74068.59;;;-148.52;83.34
3254;BME280;1639;42.804;23.342;2024-03-17T02:34:18;74076.84;;;-148.52;82.72
3254;BME280;1639;42.804;23.342;2024-03-17T02:36:43;74091.34;;;-148.52;83.48
3254;BME280;1639;42.804;23.342;2024-03-17T02:39:09;74099.59;;;-148.52;84.22
3254;BME280;1639;42.804;23.342;2024-03-17T02:41:53;74132.72;;;-148.52;83.85
3254;BME280;1639;42.804;23.342;2024-03-17T02:44:18;74145.13;;;-148.52;85.15
3254;BME280;1639;42.804;23.342;2024-03-17T02:46:43;74151.34;;;-148.52;85.63
3254;BME280;1639;42.804;23.342;2024-03-17T02:49:09;74157.53;;;-148.52;85.60
3254;BME280;1639;42.804;23.342;2024-03-17T02:51:39;74159.59;;;-148.52;86.40
3254;BME280;1639;42.804;23.342;2024-03-17T02:54:04;74167.88;;;-148.52;87.47
3254;BME280;1639;42.804;23.342;2024-03-17T02:56:31;74194.78;;;-148.52;89.62
3254;BME280;1639;42.804;23.342;2024-03-17T02:58:57;74174.09;;;-148.52;89.79
3254;BME280;1639;42.804;23.342;2024-03-17T03:01:22;74163.75;;;-148.52;89.55
3254;BME280;1639;42.804;23.342;2024-03-17T03:03:48;74176.16;;;-148.52;89.89
3254;BME280;1639;42.804;23.342;2024-03-17T03:06:15;74176.16;;;-148.52;90.53
3254;BME280;1639;42.804;23.342;2024-03-17T03:08:43;74157.53;;;-148.52;90.56
3254;BME280;1639;42.804;23.342;2024-03-17T03:11:10;74151.34;;;-148.52;90.05
3254;BME280;1639;42.804;23.342;2024-03-17T03:13:41;74151.34;;;-148.52;90.06
3254;BME280;1639;42.804;23.342;2024-03-17T03:16:08;74138.91;;;-148.52;90.33
3254;BME280;1639;42.804;23.342;2024-03-17T03:18:34;74138.91;;;-148.52;90.17
3254;BME280;1639;42.804;23.342;2024-03-17T03:20:59;74134.78;;;-148.52;96.47
3254;BME280;1639;42.804;23.342;2024-03-17T03:23:25;74138.91;;;-148.52;100.00
3254;BME280;1639;42.804;23.342;2024-03-17T03:25:55;74124.44;;;-148.52;100.00
3254;BME280;1639;42.804;23.342;2024-03-17T03:28:22;74134.78;;;-148.52;100.00
3254;BME280;1639;42.804;23.342;2024-03-17T03:30:48;74118.22;;;-148.52;100.00
3254;BME280;1639;42.804;23.342;2024-03-17T03:33:13;74099.59;;;-148.52;100.00
3254;BME280;1639;42.804;23.342;2024-03-17T03:35:38;74114.09;;;-148.52;100.00
3254;BME280;1639;42.804;23.342;2024-03-17T03:38:04;74105.81;;;-148.52;100.00
3254;BME280;1639;42.804;23.342;2024-03-17T03:40:30;74103.75;;;-148.52;100.00
3254;BME280;1639;42.804;23.342;2024-03-17T03:42:56;74109.94;;;-148.52;100.00
3254;BME280;1639;42.804;23.342;2024-03-17T03:45:22;74097.53;;;-148.52;100.00
3254;BME280;1639;42.804;23.342;2024-03-17T03:47:49;74099.59;;;-148.52;100.00
3254;BME280;1639;42.804;23.342;2024-03-17T03:50:16;74101.69;;;-148.52;100.00
3254;BME280;1639;42.804;23.342;2024-03-17T03:52:42;74112.03;;;-148.52;100.00
3254;BME280;1639;42.804;23.342;2024-03-17T03:55:09;74107.88;;;-148.52;100.00
3254;BME280;1639;42.804;23.342;2024-03-17T03:57:41;74101.69;;;-148.52;100.00
3254;BME280;1639;42.804;23.342;2024-03-17T04:00:08;74109.94;;;-148.52;100.00
3254;BME280;1639;42.804;23.342;2024-03-17T04:02:40;74114.09;;;-148.52;100.00
3254;BME280;1639;42.804;23.342;2024-03-17T04:05:06;74118.22;;;-148.52;100.00
3254;BME280;1639;42.804;23.342;2024-03-17T04:07:32;74116.16;;;-148.52;100.00
3254;BME280;1639;42.804;23.342;2024-03-17T04:09:58;74120.31;;;-148.52;100.00
3254;BME280;1639;42.804;23.342;2024-03-17T04:12:24;74134.78;;;-148.52;100.00
3254;BME280;1639;42.804;23.342;2024-03-17T04:14:50;74134.78;;;-148.52;100.00
3254;BME280;1639;42.804;23.342;2024-03-17T04:17:21;74138.91;;;-148.52;100.00
3254;BME280;1639;42.804;23.342;2024-03-17T04:19:47;74151.34;;;-148.52;100.00
3254;BME280;1639;42.804;23.342;2024-03-17T04:22:16;74167.88;;;-148.52;100.00
3254;BME280;1639;42.804;23.342;2024-03-17T04:24:49;74174.09;;;-148.52;100.00
3254;BME280;1639;42.804;23.342;2024-03-17T04:27:25;74180.28;;;-148.52;100.00
3254;BME280;1639;42.804;23.342;2024-03-17T04:29:56;74163.75;;;-148.52;100.00
3254;BME280;1639;42.804;23.342;2024-03-17T04:32:22;74161.69;;;-148.52;100.00
3254;BME280;1639;42.804;23.342;2024-03-17T04:34:48;74151.34;;;-148.52;100.00
3254;BME280;1639;42.804;23.342;2024-03-17T04:37:14;74169.94;;;-148.52;100.00
3254;BME280;1639;42.804;23.342;2024-03-17T04:39:40;74188.56;;;-148.52;100.00
3254;BME280;1639;42.804;23.342;2024-03-17T04:42:15;74209.25;;;-148.52;100.00
3254;BME280;1639;42.804;23.342;2024-03-17T04:44:41;74221.66;;;-148.52;100.00
3254;BME280;1639;42.804;23.342;2024-03-17T04:47:07;74223.75;;;-148.52;100.00
3254;BME280;1639;42.804;23.342;2024-03-17T04:49:41;74215.47;;;-148.52;100.00
3254;BME280;1639;42.804;23.342;2024-03-17T04:52:08;74200.97;;;-148.52;100.00
3254;BME280;1639;42.804;23.342;2024-03-17T04:54:34;74196.84;;;-148.52;100.00
3254;BME280;1639;42.804;23.342;2024-03-17T04:57:00;74198.91;;;-148.52;100.00
3254;BME280;1639;42.804;23.342;2024-03-17T04:59:25;74200.97;;;-148.52;100.00
3254;BME280;1639;42.804;23.342;2024-03-17T05:01:51;74188.56;;;-148.52;100.00
3254;BME280;1639;42.804;23.342;2024-03-17T05:04:17;74174.09;;;-148.52;100.00
3254;BME280;1639;42.804;23.342;2024-03-17T05:06:42;74188.56;;;-148.52;100.00
3254;BME280;1639;42.804;23.342;2024-03-17T05:09:14;74192.72;;;-148.52;100.00
3254;BME280;1639;42.804;23.342;2024-03-17T05:11:40;74188.56;;;-148.52;100.00
3254;BME280;1639;42.804;23.342;2024-03-17T05:14:06;74178.22;;;-148.52;100.00
3254;BME280;1639;42.804;23.342;2024-03-17T05:16:31;74172.03;;;-148.52;100.00
3254;BME280;1639;42.804;23.342;2024-03-17T05:18:57;74159.59;;;-148.52;100.00
3254;BME280;1639;42.804;23.342;2024-03-17T05:21:22;74161.69;;;-148.52;100.00
3254;BME280;1639;42.804;23.342;2024-03-17T05:23:49;74147.19;;;-148.52;100.00
3254;BME280;1639;42.804;23.342;2024-03-17T05:26:14;74136.84;;;-148.52;100.00
3254;BME280;1639;42.804;23.342;2024-03-17T05:28:40;74141.00;;;-148.52;100.00
3254;BME280;1639;42.804;23.342;2024-03-17T05:31:05;74138.91;;;-148.52;100.00
3254;BME280;1639;42.804;23.342;2024-03-17T05:33:31;74141.00;;;-148.52;100.00
3254;BME280;1639;42.804;23.342;2024-03-17T05:35:58;74161.69;;;-148.52;100.00
3254;BME280;1639;42.804;23.342;2024-03-17T05:38:25;74132.72;;;-148.52;100.00
3254;BME280;1639;42.804;23.342;2024-03-17T05:41:00;74147.19;;;-148.52;100.00
3254;BME280;1639;42.804;23.342;2024-03-17T05:43:34;74141.00;;;-148.52;100.00
3254;BME280;1639;42.804;23.342;2024-03-17T05:46:07;74128.56;;;-148.52;100.00
3254;BME280;1639;42.804;23.342;2024-03-17T05:48:37;74120.31;;;-148.52;100.00
3254;BME280;1639;42.804;23.342;2024-03-17T05:51:10;74118.22;;;-148.52;100.00
3254;BME280;1639;42.804;23.342;2024-03-17T05:53:36;74103.75;;;-148.52;100.00
3254;BME280;1639;42.804;23.342;2024-03-17T05:56:04;74091.34;;;-148.52;100.00
3254;BME280;1639;42.804;23.342;2024-03-17T05:58:29;74056.16;;;-148.52;100.00
3254;BME280;1639;42.804;23.342;2024-03-17T06:00:55;74033.41;;;-148.52;100.00
3254;BME280;1639;42.804;23.342;2024-03-17T06:03:20;74025.13;;;-148.52;100.00
3254;BME280;1639;42.804;23.342;2024-03-17T06:05:47;74000.31;;;-148.52;100.00
3254;BME280;1639;42.804;23.342;2024-03-17T06:08:13;73985.81;;;-148.52;100.00
3254;BME280;1639;42.804;23.342;2024-03-17T06:10:47;73983.75;;;-148.52;100.00
3254;BME280;1639;42.804;23.342;2024-03-17T06:13:13;74006.53;;;-148.52;99.78
3254;BME280;1639;42.804;23.342;2024-03-17T06:15:40;73985.81;;;-148.52;100.00
3254;BME280;1639;42.804;23.342;2024-03-17T06:18:06;73958.94;;;-148.52;98.95
3254;BME280;1639;42.804;23.342;2024-03-17T06:20:40;73950.66;;;-148.52;97.10
3254;BME280;1639;42.804;23.342;2024-03-17T06:23:07;73915.50;;;-148.52;95.56
3254;BME280;1639;42.804;23.342;2024-03-17T06:25:40;73903.09;;;-148.52;92.44
3254;BME280;1639;42.804;23.342;2024-03-17T06:28:07;73890.66;;;-148.52;92.39
3254;BME280;1639;42.804;23.342;2024-03-17T06:30:33;73919.63;;;-148.52;90.96
3254;BME280;1639;42.804;23.342;2024-03-17T06:32:59;73880.31;;;-148.52;89.38
3254;BME280;1639;42.804;23.342;2024-03-17T06:35:26;73909.28;;;-148.52;90.30
3254;BME280;1639;42.804;23.342;2024-03-17T06:37:52;73896.88;;;-148.52;88.42
3254;BME280;1639;42.804;23.342;2024-03-17T06:40:18;73869.97;;;-148.52;86.75
3254;BME280;1639;42.804;23.342;2024-03-17T06:42:43;73880.31;;;-148.52;87.24
3254;BME280;1639;42.804;23.342;2024-03-17T06:45:09;73884.47;;;-148.52;86.62
3254;BME280;1639;42.804;23.342;2024-03-17T06:47:35;73847.22;;;-148.52;88.61
3254;BME280;1639;42.804;23.342;2024-03-17T06:50:02;73818.25;;;-148.52;86.18
3254;BME280;1639;42.804;23.342;2024-03-17T06:52:28;73781.03;;;-148.52;86.19
3254;BME280;1639;42.804;23.342;2024-03-17T06:54:53;73752.06;;;-148.52;86.54
3254;BME280;1639;42.804;23.342;2024-03-17T06:57:19;73704.50;;;-148.52;80.56
3254;BME280;1639;42.804;23.342;2024-03-17T06:59:44;73667.25;;;-148.52;79.20
3254;BME280;1639;42.804;23.342;2024-03-17T07:02:11;73654.84;;;-148.52;76.89
3254;BME280;1639;42.804;23.342;2024-03-17T07:04:40;73671.41;;;-148.52;75.77
3254;BME280;1639;42.804;23.342;2024-03-17T07:07:06;73671.41;;;-148.52;74.20
3254;BME280;1639;42.804;23.342;2024-03-17T07:09:31;73667.25;;;-148.52;74.35
3254;BME280;1639;42.804;23.342;2024-03-17T07:11:56;73685.88;;;-148.52;76.43
3254;BME280;1639;42.804;23.342;2024-03-17T07:14:22;73574.16;;;-148.52;100.00
3254;BME280;1639;42.804;23.342;2024-03-17T07:16:48;73491.44;;;-148.52;98.15
3254;BME280;1639;42.804;23.342;2024-03-17T07:19:13;73510.06;;;-148.52;74.99
3254;BME280;1639;42.804;23.342;2024-03-17T07:21:38;73536.94;;;-148.52;71.68
3254;BME280;1639;42.804;23.342;2024-03-17T07:24:04;73547.28;;;-148.52;71.39
3254;BME280;1639;42.804;23.342;2024-03-17T07:26:30;73594.84;;;-148.52;71.89
3254;BME280;1639;42.804;23.342;2024-03-17T07:28:56;73578.31;;;-148.52;71.81
3254;BME280;1639;42.804;23.342;2024-03-17T07:31:21;73590.72;;;-148.52;71.73
3254;BME280;1639;42.804;23.342;2024-03-17T07:33:47;73609.34;;;-148.52;72.00
3254;BME280;1639;42.804;23.342;2024-03-17T07:36:13;73605.19;;;-148.52;71.98
3254;BME280;1639;42.804;23.342;2024-03-17T07:38:38;73588.66;;;-148.52;71.05
3254;BME280;1639;42.804;23.342;2024-03-17T07:41:05;73601.06;;;-148.52;72.26
3254;BME280;1639;42.804;23.342;2024-03-17T07:43:33;73592.78;;;-148.52;73.41
3254;BME280;1639;42.804;23.342;2024-03-17T07:46:03;73592.78;;;-148.52;72.00
3254;BME280;1639;42.804;23.342;2024-03-17T07:48:33;73588.66;;;-148.52;73.73
3254;BME280;1639;42.804;23.342;2024-03-17T07:51:03;73574.16;;;-148.52;73.14
3254;BME280;1639;42.804;23.342;2024-03-17T07:53:32;73570.03;;;-148.52;73.47
3254;BME280;1639;42.804;23.342;2024-03-17T07:56:06;73553.50;;;-148.52;71.50
3254;BME280;1639;42.804;23.342;2024-03-17T07:58:33;73561.75;;;-148.52;72.54
3254;BME280;1639;42.804;23.342;2024-03-17T08:01:03;73563.84;;;-148.52;72.04
3254;BME280;1639;42.804;23.342;2024-03-17T08:03:30;73522.47;;;-148.52;72.37
3254;BME280;1639;42.804;23.342;2024-03-17T08:05:57;73507.97;;;-148.52;72.83
3254;BME280;1639;42.804;23.342;2024-03-17T08:08:23;73493.50;;;-148.52;71.43
3254;BME280;1639;42.804;23.342;2024-03-17T08:10:48;73491.44;;;-148.52;70.78
3254;BME280;1639;42.804;23.342;2024-03-17T08:13:15;73479.03;;;-148.52;70.71
3254;BME280;1639;42.804;23.342;2024-03-17T08:15:42;73456.28;;;-148.52;69.96
3254;BME280;1639;42.804;23.342;2024-03-17T08:18:08;73414.91;;;-148.52;68.86
3254;BME280;1639;42.804;23.342;2024-03-17T08:20:40;73419.03;;;-148.52;67.61
3254;BME280;1639;42.804;23.342;2024-03-17T08:23:08;73406.63;;;-148.52;68.23
3254;BME280;1639;42.804;23.342;2024-03-17T08:25:34;73383.88;;;-148.52;67.33
3254;BME280;1639;42.804;23.342;2024-03-17T08:28:00;73342.50;;;-148.52;66.02
3254;BME280;1639;42.804;23.342;2024-03-17T08:30:25;73315.63;;;-148.52;66.40
3254;BME280;1639;42.804;23.342;2024-03-17T08:32:51;73309.41;;;-148.52;67.34
3254;BME280;1639;42.804;23.342;2024-03-17T08:35:16;73292.88;;;-148.52;66.20
3254;BME280;1639;42.804;23.342;2024-03-17T08:37:41;73284.59;;;-148.52;62.91
3254;BME280;1639;42.804;23.342;2024-03-17T08:40:07;73270.13;;;-148.52;63.70
3254;BME280;1639;42.804;23.342;2024-03-17T08:42:33;73265.97;;;-148.52;63.03
3254;BME280;1639;42.804;23.342;2024-03-17T08:44:58;73241.16;;;-148.52;62.20
3254;BME280;1639;42.804;23.342;2024-03-17T08:47:24;73197.72;;;-148.52;62.18
3254;BME280;1639;42.804;23.342;2024-03-17T08:49:52;73146.00;;;-148.52;60.97
3254;BME280;1639;42.804;23.342;2024-03-17T08:52:18;73131.53;;;-148.52;60.44
3254;BME280;1639;42.804;23.342;2024-03-17T08:54:49;73083.97;;;-148.52;58.49
3254;BME280;1639;42.804;23.342;2024-03-17T08:57:18;73052.94;;;-148.52;57.97
3254;BME280;1639;42.804;23.342;2024-03-17T08:59:46;73036.41;;;-148.52;56.56
3254;BME280;1639;42.804;23.342;2024-03-17T09:02:13;73005.38;;;-148.52;55.76
3254;BME280;1639;42.804;23.342;2024-03-17T09:04:40;72997.09;;;-148.52;55.88
3254;BME280;1639;42.804;23.342;2024-03-17T09:07:06;72980.56;;;-148.52;55.89
3254;BME280;1639;42.804;23.342;2024-03-17T09:09:31;72953.66;;;-148.52;55.65
3254;BME280;1639;42.804;23.342;2024-03-17T09:11:57;72955.75;;;-148.52;54.16
3254;BME280;1639;42.804;23.342;2024-03-17T09:14:22;72939.19;;;-148.52;53.86
3254;BME280;1639;42.804;23.342;2024-03-17T09:16:48;72939.19;;;-148.52;52.48
3254;BME280;1639;42.804;23.342;2024-03-17T09:19:13;72935.06;;;-148.52;53.89
3254;BME280;1639;42.804;23.342;2024-03-17T09:21:39;72922.66;;;-148.52;55.74
3254;BME280;1639;42.804;23.342;2024-03-17T09:24:06;72893.69;;;-148.52;53.88
3254;BME280;1639;42.804;23.342;2024-03-17T09:26:33;72904.03;;;-148.52;53.48
3254;BME280;1639;42.804;23.342;2024-03-17T09:28:59;72916.44;;;-148.52;53.63
3254;BME280;1639;42.804;23.342;2024-03-17T09:31:25;72906.09;;;-148.52;54.29
3254;BME280;1639;42.804;23.342;2024-03-17T09:33:50;72897.81;;;-148.52;53.31
3254;BME280;1639;42.804;23.342;2024-03-17T09:36:15;72875.06;;;-148.52;53.25
3254;BME280;1639;42.804;23.342;2024-03-17T09:38:41;72887.50;;;-148.52;53.99
3254;BME280;1639;42.804;23.342;2024-03-17T09:41:07;72912.31;;;-148.52;53.75
3254;BME280;1639;42.804;23.342;2024-03-17T09:43:34;72920.56;;;-148.52;53.90
3254;BME280;1639;42.804;23.342;2024-03-17T09:46:02;72899.91;;;-148.52;54.58
3254;BME280;1639;42.804;23.342;2024-03-17T09:48:28;72881.28;;;-148.52;54.12
3254;BME280;1639;42.804;23.342;2024-03-17T09:50:56;72881.28;;;-148.52;56.02
3254;BME280;1639;42.804;23.342;2024-03-17T09:53:31;72825.44;;;-148.52;54.49
3254;BME280;1639;42.804;23.342;2024-03-17T09:56:09;72790.28;;;-148.52;53.46
3254;BME280;1639;42.804;23.342;2024-03-17T09:58:39;72784.09;;;-148.52;52.26
3254;BME280;1639;42.804;23.342;2024-03-17T10:01:04;72779.94;;;-148.52;52.88
3254;BME280;1639;42.804;23.342;2024-03-17T10:06:23;72773.75;;;-148.52;52.05
3254;BME280;1639;42.804;23.342;2024-03-17T10:08:50;72755.13;;;-148.52;51.08
3254;BME280;1639;42.804;23.342;2024-03-17T10:11:21;72784.09;;;-148.52;51.82
3254;BME280;1639;42.804;23.342;2024-03-17T10:13:59;72823.38;;;-148.52;50.96
3254;BME280;1639;42.804;23.342;2024-03-17T10:16:26;72852.31;;;-148.52;51.49
3254;BME280;1639;42.804;23.342;2024-03-17T10:19:13;72864.75;;;-148.52;51.79
3254;BME280;1639;42.804;23.342;2024-03-17T10:21:46;72875.06;;;-148.52;52.12
3254;BME280;1639;42.804;23.342;2024-03-17T10:24:22;72899.91;;;-148.52;52.88
3254;BME280;1639;42.804;23.342;2024-03-17T10:26:50;72885.41;;;-148.52;52.98
3254;BME280;1639;42.804;23.342;2024-03-17T10:32:12;72883.34;;;-148.52;52.05
3254;BME280;1639;42.804;23.342;2024-03-17T10:34:38;72879.22;;;-148.52;52.95
3254;BME280;1639;42.804;23.342;2024-03-17T10:37:08;72881.28;;;-148.52;53.12
3254;BME280;1639;42.804;23.342;2024-03-17T10:39:38;72875.06;;;-148.52;50.47
3254;BME280;1639;42.804;23.342;2024-03-17T10:42:05;72879.22;;;-148.52;51.26
3254;BME280;1639;42.804;23.342;2024-03-17T10:44:32;72864.75;;;-148.52;50.14
3254;BME280;1639;42.804;23.342;2024-03-17T10:47:00;72848.19;;;-148.52;49.08
3254;BME280;1639;42.804;23.342;2024-03-17T10:49:34;72842.00;;;-148.52;49.37
3254;BME280;1639;42.804;23.342;2024-03-17T10:52:01;72827.50;;;-148.52;48.09
3254;BME280;1639;42.804;23.342;2024-03-17T10:54:28;72823.38;;;-148.52;49.14
3254;BME280;1639;42.804;23.342;2024-03-17T10:59:39;72798.56;;;-148.52;49.05
3254;BME280;1639;42.804;23.342;2024-03-17T11:02:27;72763.41;;;-148.52;51.41
3254;BME280;1639;42.804;23.342;2024-03-17T11:05:05;72715.84;;;-148.52;48.32
3254;BME280;1639;42.804;23.342;2024-03-17T11:07:31;72711.69;;;-148.52;46.92
3254;BME280;1639;42.804;23.342;2024-03-17T11:09:59;72717.91;;;-148.52;45.72
3254;BME280;1639;42.804;23.342;2024-03-17T11:12:48;72732.38;;;-148.52;45.91
3254;BME280;1639;42.804;23.342;2024-03-17T11:17:53;72730.31;;;-148.52;45.17
3254;BME280;1639;42.804;23.342;2024-03-17T11:20:28;72719.97;;;-148.52;44.53
3254;BME280;1639;42.804;23.342;2024-03-17T11:23:00;72724.09;;;-148.52;43.16
3254;BME280;1639;42.804;23.342;2024-03-17T11:27:54;72734.44;;;-148.52;43.08
3254;BME280;1639;42.804;23.342;2024-03-17T11:47:04;72761.34;;;-148.52;46.29
3254;BME280;1639;42.804;23.342;2024-03-17T11:49:34;72748.91;;;-148.52;45.75
3254;BME280;1639;42.804;23.342;2024-03-17T11:52:08;72748.91;;;-148.52;45.62
3254;BME280;1639;42.804;23.342;2024-03-17T11:54:35;72751.00;;;-148.52;44.45
3254;BME280;1639;42.804;23.342;2024-03-17T11:57:02;72748.91;;;-148.52;44.78
3254;BME280;1639;42.804;23.342;2024-03-17T11:59:29;72746.84;;;-148.52;45.25
3254;BME280;1639;42.804;23.342;2024-03-17T12:01:55;72736.50;;;-148.52;45.49
3254;BME280;1639;42.804;23.342;2024-03-17T12:04:22;72715.84;;;-148.52;45.09
3254;BME280;1639;42.804;23.342;2024-03-17T12:06:48;72707.56;;;-148.52;44.19
3254;BME280;1639;42.804;23.342;2024-03-17T12:09:27;72660.00;;;-148.52;44.99
3254;BME280;1639;42.804;23.342;2024-03-17T12:12:08;72645.53;;;-148.52;44.57
3254;BME280;1639;42.804;23.342;2024-03-17T12:14:35;72664.13;;;-148.52;44.39
3254;BME280;1639;42.804;23.342;2024-03-17T12:17:03;72682.75;;;-148.52;43.87
3254;BME280;1639;42.804;23.342;2024-03-17T12:19:30;72695.16;;;-148.52;46.08
3254;BME280;1639;42.804;23.342;2024-03-17T12:22:00;72693.09;;;-148.52;46.39
3254;BME280;1639;42.804;23.342;2024-03-17T12:24:27;72715.84;;;-148.52;46.53
3254;BME280;1639;42.804;23.342;2024-03-17T12:26:54;72744.78;;;-148.52;46.20
3254;BME280;1639;42.804;23.342;2024-03-17T12:29:31;72753.06;;;-148.52;45.87
3254;BME280;1639;42.804;23.342;2024-03-17T12:32:16;72765.47;;;-148.52;47.78
3254;BME280;1639;42.804;23.342;2024-03-17T12:34:45;72777.88;;;-148.52;47.53
3254;BME280;1639;42.804;23.342;2024-03-17T12:37:19;72779.94;;;-148.52;49.04
3254;BME280;1639;42.804;23.342;2024-03-17T12:39:45;72823.38;;;-148.52;48.61
3254;BME280;1639;42.804;23.342;2024-03-17T12:42:13;72819.25;;;-148.52;49.26
3254;BME280;1639;42.804;23.342;2024-03-17T12:44:52;72819.25;;;-148.52;49.75
3254;BME280;1639;42.804;23.342;2024-03-17T12:47:23;72831.66;;;-148.52;49.55
3254;BME280;1639;42.804;23.342;2024-03-17T12:49:53;72831.66;;;-148.52;50.23
3254;BME280;1639;42.804;23.342;2024-03-17T12:52:19;72854.41;;;-148.52;50.47
3254;BME280;1639;42.804;23.342;2024-03-17T12:54:45;72844.06;;;-148.52;49.84
3254;BME280;1639;42.804;23.342;2024-03-17T12:57:20;72856.47;;;-148.52;50.49
3254;BME280;1639;42.804;23.342;2024-03-17T13:00:17;72868.88;;;-148.52;50.81
3254;BME280;1639;42.804;23.342;2024-03-17T13:02:59;72866.81;;;-148.52;51.95
3254;BME280;1639;42.804;23.342;2024-03-17T13:05:25;72856.47;;;-148.52;50.76
3254;BME280;1639;42.804;23.342;2024-03-17T13:07:51;72858.53;;;-148.52;51.35
3254;BME280;1639;42.804;23.342;2024-03-17T13:10:20;72862.66;;;-148.52;50.00
3254;BME280;1639;42.804;23.342;2024-03-17T13:12:47;72856.47;;;-148.52;51.64
3254;BME280;1639;42.804;23.342;2024-03-17T13:15:17;72844.06;;;-148.52;51.23
3254;BME280;1639;42.804;23.342;2024-03-17T13:17:43;72850.25;;;-148.52;51.22
3254;BME280;1639;42.804;23.342;2024-03-17T13:20:13;72860.59;;;-148.52;51.34